createdAt,value
2023-04-28T00:00:21.843Z,26.21
2023-04-28T00:01:21.889Z,26.21
2023-04-28T00:02:22.026Z,26.18
2023-04-28T00:03:22.174Z,26.19
2023-04-28T00:04:22.557Z,26.19
2023-04-28T00:05:22.243Z,26.20
2023-04-28T00:06:22.202Z,26.19
2023-04-28T00:07:22.269Z,26.20
2023-04-28T00:08:22.320Z,26.21
2023-04-28T00:09:22.376Z,26.19
2023-04-28T00:10:22.445Z,26.18
2023-04-28T00:11:22.479Z,26.20
2023-04-28T00:12:22.565Z,26.19
2023-04-28T00:13:22.605Z,26.20
2023-04-28T00:14:22.667Z,26.19
2023-04-28T00:15:22.727Z,26.17
2023-04-28T00:16:22.833Z,26.20
2023-04-28T00:17:22.885Z,26.17
2023-04-28T00:18:22.917Z,26.19
2023-04-28T00:19:22.955Z,26.20
2023-04-28T00:20:23.012Z,26.19
2023-04-28T00:21:23.087Z,26.17
2023-04-28T00:22:23.122Z,26.17
2023-04-28T00:23:23.202Z,26.17
2023-04-28T00:24:23.260Z,26.15
2023-04-28T00:25:23.323Z,26.18
2023-04-28T00:26:23.391Z,26.17
2023-04-28T00:27:23.447Z,26.15
2023-04-28T00:28:33.556Z,26.20
2023-04-28T00:29:24.475Z,26.19
2023-04-28T00:30:23.491Z,26.17
2023-04-28T00:31:23.481Z,26.16
2023-04-28T00:32:23.514Z,26.18
2023-04-28T00:33:23.478Z,26.19
2023-04-28T00:34:23.451Z,26.16
2023-04-28T00:35:23.453Z,26.14
2023-04-28T00:36:23.438Z,26.17
2023-04-28T00:37:23.456Z,26.15
2023-04-28T00:38:23.493Z,26.17
2023-04-28T00:39:23.543Z,26.15
2023-04-28T00:40:23.629Z,26.17
2023-04-28T00:41:23.668Z,26.14
2023-04-28T00:42:23.728Z,26.16
2023-04-28T00:43:23.778Z,26.14
2023-04-28T00:44:23.852Z,26.15
2023-04-28T00:45:23.889Z,26.12
2023-04-28T00:46:23.934Z,26.14
2023-04-28T00:47:24.060Z,26.11
2023-04-28T00:48:24.029Z,26.16
2023-04-28T00:49:24.064Z,26.14
2023-04-28T00:50:24.118Z,26.14
2023-04-28T00:51:24.207Z,26.14
2023-04-28T00:52:24.269Z,26.13
2023-04-28T00:53:24.304Z,26.15
2023-04-28T00:54:24.370Z,26.14
2023-04-28T00:55:24.416Z,26.16
2023-04-28T00:56:24.480Z,26.14
2023-04-28T00:57:24.502Z,26.15
2023-04-28T00:58:24.577Z,26.15
2023-04-28T00:59:24.625Z,26.14
2023-04-28T01:00:24.700Z,26.16
2023-04-28T01:01:24.772Z,26.13
2023-04-28T01:02:24.918Z,26.12
2023-04-28T01:03:24.969Z,26.15
2023-04-28T01:04:25.087Z,26.16
2023-04-28T01:05:24.970Z,26.13
2023-04-28T01:06:25.053Z,26.16
2023-04-28T01:07:25.121Z,26.18
2023-04-28T01:08:25.164Z,26.16
2023-04-28T01:09:25.211Z,26.15
2023-04-28T01:10:25.289Z,26.14
2023-04-28T01:11:25.349Z,26.12
2023-04-28T01:12:25.389Z,26.15
2023-04-28T01:13:25.444Z,26.17
2023-04-28T01:14:25.520Z,26.19
2023-04-28T01:15:25.593Z,26.20
2023-04-28T01:16:25.638Z,26.16
2023-04-28T01:17:25.880Z,26.16
2023-04-28T01:18:25.730Z,26.14
2023-04-28T01:19:25.786Z,26.15
2023-04-28T01:20:25.847Z,26.16
2023-04-28T01:21:25.881Z,26.17
2023-04-28T01:22:25.939Z,26.15
2023-04-28T01:23:25.965Z,26.16
2023-04-28T01:24:26.044Z,26.16
2023-04-28T01:25:26.120Z,26.14
2023-04-28T01:26:26.153Z,26.18
2023-04-28T01:27:26.273Z,26.14
2023-04-28T01:28:26.280Z,26.16
2023-04-28T01:29:26.337Z,26.15
2023-04-28T01:30:26.382Z,26.18
2023-04-28T01:31:26.516Z,26.16
2023-04-28T01:32:26.532Z,26.15
2023-04-28T01:33:26.611Z,26.16
2023-04-28T01:34:26.612Z,26.18
2023-04-28T01:35:26.677Z,26.14
2023-04-28T01:36:26.746Z,26.18
2023-04-28T01:37:26.793Z,26.19
2023-04-28T01:38:26.916Z,26.18
2023-04-28T01:39:26.929Z,26.17
2023-04-28T01:40:26.977Z,26.18
2023-04-28T01:41:27.025Z,26.17
2023-04-28T01:42:27.071Z,26.18
2023-04-28T01:43:27.134Z,26.16
2023-04-28T01:44:27.180Z,26.18
2023-04-28T01:45:27.245Z,26.18
2023-04-28T01:46:27.426Z,26.17
2023-04-28T01:47:27.360Z,26.19
2023-04-28T01:48:27.390Z,26.19
2023-04-28T01:49:27.456Z,26.18
2023-04-28T01:50:27.531Z,26.20
2023-04-28T01:51:27.558Z,26.20
2023-04-28T01:52:27.626Z,26.17
2023-04-28T01:53:27.659Z,26.20
2023-04-28T01:54:27.737Z,26.19
2023-04-28T01:55:27.794Z,26.19
2023-04-28T01:56:27.831Z,26.18
2023-04-28T01:57:27.905Z,26.17
2023-04-28T01:58:27.956Z,26.21
2023-04-28T01:59:28.017Z,26.19
2023-04-28T02:00:28.058Z,26.18
2023-04-28T02:01:28.135Z,26.18
2023-04-28T02:02:28.245Z,26.19
2023-04-28T02:03:28.383Z,26.17
2023-04-28T02:04:28.309Z,26.22
2023-04-28T02:05:28.461Z,26.17
2023-04-28T02:06:28.410Z,26.20
2023-04-28T02:07:28.475Z,26.20
2023-04-28T02:08:28.515Z,26.19
2023-04-28T02:09:28.571Z,26.23
2023-04-28T02:10:28.637Z,26.19
2023-04-28T02:11:28.680Z,26.21
2023-04-28T02:12:28.742Z,26.23
2023-04-28T02:13:28.817Z,26.22
2023-04-28T02:14:28.857Z,26.19
2023-04-28T02:15:28.927Z,26.22
2023-04-28T02:16:29.060Z,26.23
2023-04-28T02:17:29.064Z,26.21
2023-04-28T02:18:29.081Z,26.27
2023-04-28T02:19:29.137Z,26.25
2023-04-28T02:20:30.781Z,26.25
2023-04-28T02:21:29.197Z,26.24
2023-04-28T02:22:29.192Z,26.25
2023-04-28T02:23:29.189Z,26.26
2023-04-28T02:24:29.195Z,26.22
2023-04-28T02:25:29.179Z,26.26
2023-04-28T02:26:29.175Z,26.25
2023-04-28T02:27:29.173Z,26.28
2023-04-28T02:28:29.144Z,26.26
2023-04-28T02:29:29.136Z,26.25
2023-04-28T02:30:29.151Z,26.26
2023-04-28T02:31:29.211Z,26.25
2023-04-28T02:32:29.143Z,26.27
2023-04-28T02:33:29.115Z,26.27
2023-04-28T02:34:29.104Z,26.26
2023-04-28T02:35:29.110Z,26.25
2023-04-28T02:36:29.107Z,26.29
2023-04-28T02:37:29.089Z,26.31
2023-04-28T02:38:29.082Z,26.25
2023-04-28T02:39:29.082Z,26.29
2023-04-28T02:40:29.069Z,26.32
2023-04-28T02:41:29.072Z,26.30
2023-04-28T02:42:29.049Z,26.28
2023-04-28T02:43:29.041Z,26.29
2023-04-28T02:44:29.051Z,26.29
2023-04-28T02:45:29.049Z,26.31
2023-04-28T02:46:29.087Z,26.28
2023-04-28T02:47:29.022Z,26.30
2023-04-28T02:48:28.993Z,26.29
2023-04-28T02:49:28.991Z,26.31
2023-04-28T02:50:29.028Z,26.33
2023-04-28T02:51:29.006Z,26.33
2023-04-28T02:52:28.995Z,26.32
2023-04-28T02:53:28.979Z,26.31
2023-04-28T02:54:28.973Z,26.34
2023-04-28T02:55:28.947Z,26.34
2023-04-28T02:56:28.937Z,26.32
2023-04-28T02:57:28.942Z,26.30
2023-04-28T02:58:28.980Z,26.36
2023-04-28T02:59:29.023Z,26.32
2023-04-28T03:00:29.095Z,26.34
2023-04-28T03:01:29.255Z,26.35
2023-04-28T03:02:29.295Z,26.32
2023-04-28T03:03:29.395Z,26.35
2023-04-28T03:04:29.438Z,26.33
2023-04-28T03:05:29.392Z,26.34
2023-04-28T03:06:29.481Z,26.31
2023-04-28T03:07:29.541Z,26.34
2023-04-28T03:08:29.568Z,26.32
2023-04-28T03:09:29.627Z,26.37
2023-04-28T03:10:29.672Z,26.37
2023-04-28T03:11:29.720Z,26.35
2023-04-28T03:12:29.750Z,26.37
2023-04-28T03:13:29.815Z,26.35
2023-04-28T03:14:29.873Z,26.35
2023-04-28T03:15:29.947Z,26.35
2023-04-28T03:16:30.052Z,26.37
2023-04-28T03:17:30.052Z,26.38
2023-04-28T03:18:30.092Z,26.37
2023-04-28T03:19:30.165Z,26.38
2023-04-28T03:20:30.297Z,26.34
2023-04-28T03:21:30.305Z,26.37
2023-04-28T03:22:30.339Z,26.35
2023-04-28T03:23:30.385Z,26.39
2023-04-28T03:24:30.466Z,26.36
2023-04-28T03:25:30.514Z,26.39
2023-04-28T03:26:30.562Z,26.38
2023-04-28T03:27:30.587Z,26.39
2023-04-28T03:28:30.628Z,26.34
2023-04-28T03:29:30.694Z,26.38
2023-04-28T03:30:30.764Z,26.38
2023-04-28T03:31:30.797Z,26.37
2023-04-28T03:32:30.867Z,26.37
2023-04-28T03:33:30.886Z,26.38
2023-04-28T03:34:30.934Z,26.39
2023-04-28T03:35:30.977Z,26.34
2023-04-28T03:36:31.061Z,26.39
2023-04-28T03:37:31.115Z,26.36
2023-04-28T03:38:31.163Z,26.37
2023-04-28T03:39:31.201Z,26.38
2023-04-28T03:40:31.268Z,26.36
2023-04-28T03:41:31.340Z,26.35
2023-04-28T03:42:31.371Z,26.39
2023-04-28T03:43:31.450Z,26.34
2023-04-28T03:44:31.491Z,26.37
2023-04-28T03:45:31.637Z,26.38
2023-04-28T03:46:31.596Z,26.37
2023-04-28T03:47:31.662Z,26.35
2023-04-28T03:48:31.753Z,26.36
2023-04-28T03:49:31.752Z,26.37
2023-04-28T03:50:31.814Z,26.36
2023-04-28T03:51:31.872Z,26.38
2023-04-28T03:52:31.915Z,26.37
2023-04-28T03:53:31.973Z,26.39
2023-04-28T03:54:32.000Z,26.36
2023-04-28T03:55:32.095Z,26.40
2023-04-28T03:56:32.123Z,26.39
2023-04-28T03:57:32.186Z,26.39
2023-04-28T03:58:32.253Z,26.36
2023-04-28T03:59:32.289Z,26.38
2023-04-28T04:00:32.409Z,26.36
2023-04-28T04:01:32.399Z,26.37
2023-04-28T04:02:32.587Z,26.33
2023-04-28T04:03:32.702Z,26.36
2023-04-28T04:04:32.807Z,26.36
2023-04-28T04:05:32.697Z,26.37
2023-04-28T04:06:32.700Z,26.33
2023-04-28T04:07:32.762Z,26.37
2023-04-28T04:08:32.809Z,26.36
2023-04-28T04:09:32.834Z,26.35
2023-04-28T04:10:32.906Z,26.36
2023-04-28T04:11:32.958Z,26.39
2023-04-28T04:12:32.987Z,26.37
2023-04-28T04:13:33.066Z,26.36
2023-04-28T04:14:33.146Z,26.34
2023-04-28T04:15:33.177Z,26.36
2023-04-28T04:16:33.251Z,26.38
2023-04-28T04:17:33.297Z,26.36
2023-04-28T04:18:33.320Z,26.37
2023-04-28T04:19:33.379Z,26.36
2023-04-28T04:20:33.427Z,26.36
2023-04-28T04:21:33.492Z,26.38
2023-04-28T04:22:33.522Z,26.37
2023-04-28T04:23:33.588Z,26.37
2023-04-28T04:24:33.656Z,26.35
2023-04-28T04:25:33.701Z,26.39
2023-04-28T04:26:33.812Z,26.36
2023-04-28T04:27:33.873Z,26.39
2023-04-28T04:28:33.911Z,26.36
2023-04-28T04:29:33.944Z,26.39
2023-04-28T04:30:34.005Z,26.39
2023-04-28T04:31:34.101Z,26.34
2023-04-28T04:32:34.164Z,26.38
2023-04-28T04:33:34.163Z,26.42
2023-04-28T04:34:34.211Z,26.40
2023-04-28T04:35:34.256Z,26.36
2023-04-28T04:36:34.307Z,26.40
2023-04-28T04:37:34.364Z,26.41
2023-04-28T04:38:34.406Z,26.38
2023-04-28T04:39:34.472Z,26.38
2023-04-28T04:40:34.523Z,26.40
2023-04-28T04:41:34.610Z,26.40
2023-04-28T04:42:34.661Z,26.40
2023-04-28T04:43:34.690Z,26.42
2023-04-28T04:44:34.773Z,26.40
2023-04-28T04:45:34.824Z,26.41
2023-04-28T04:46:34.935Z,26.40
2023-04-28T04:47:34.956Z,26.44
2023-04-28T04:48:35.002Z,26.42
2023-04-28T04:49:35.046Z,26.43
2023-04-28T04:50:35.105Z,26.40
2023-04-28T04:51:35.174Z,26.43
2023-04-28T04:52:35.174Z,26.40
2023-04-28T04:53:35.231Z,26.42
2023-04-28T04:54:35.302Z,26.45
2023-04-28T04:55:35.329Z,26.41
2023-04-28T04:56:35.397Z,26.43
2023-04-28T04:57:35.461Z,26.44
2023-04-28T04:58:35.493Z,26.45
2023-04-28T04:59:35.573Z,26.47
2023-04-28T05:00:35.672Z,26.37
2023-04-28T05:01:35.717Z,26.44
2023-04-28T05:02:35.869Z,26.44
2023-04-28T05:03:35.886Z,26.46
2023-04-28T05:04:36.038Z,26.41
2023-04-28T05:05:35.914Z,26.43
2023-04-28T05:06:36.005Z,26.44
2023-04-28T05:07:36.038Z,26.46
2023-04-28T05:08:36.079Z,26.45
2023-04-28T05:09:36.114Z,26.45
2023-04-28T05:10:36.188Z,26.46
2023-04-28T05:11:36.237Z,26.49
2023-04-28T05:12:36.286Z,26.48
2023-04-28T05:13:36.362Z,26.45
2023-04-28T05:14:36.422Z,26.46
2023-04-28T05:15:36.456Z,26.49
2023-04-28T05:16:36.604Z,26.49
2023-04-28T05:17:36.628Z,26.51
2023-04-28T05:18:36.644Z,26.51
2023-04-28T05:19:36.673Z,26.50
2023-04-28T05:20:36.737Z,26.49
2023-04-28T05:21:36.825Z,26.53
2023-04-28T05:22:36.853Z,26.56
2023-04-28T05:23:36.932Z,26.52
2023-04-28T05:24:36.953Z,26.49
2023-04-28T05:25:37.102Z,26.55
2023-04-28T05:26:37.102Z,26.53
2023-04-28T05:27:37.125Z,26.54
2023-04-28T05:28:37.153Z,26.57
2023-04-28T05:29:37.217Z,26.75
2023-04-28T05:30:37.278Z,27.22
2023-04-28T05:31:37.740Z,27.18
2023-04-28T05:32:37.436Z,27.23
2023-04-28T05:33:37.453Z,27.84
2023-04-28T05:34:37.497Z,27.76
2023-04-28T05:35:37.567Z,27.95
2023-04-28T05:36:37.642Z,27.89
2023-04-28T05:37:37.676Z,28.07
2023-04-28T05:38:37.726Z,28.30
2023-04-28T05:39:37.799Z,28.96
2023-04-28T05:40:37.860Z,29.84
2023-04-28T05:41:37.873Z,29.99
2023-04-28T05:42:37.915Z,29.74
2023-04-28T05:43:37.974Z,29.62
2023-04-28T05:44:38.005Z,29.46
2023-04-28T05:45:38.062Z,29.56
2023-04-28T05:46:38.169Z,29.50
2023-04-28T05:47:38.193Z,29.40
2023-04-28T05:48:38.165Z,29.47
2023-04-28T05:49:38.178Z,29.51
2023-04-28T05:50:39.003Z,29.45
2023-04-28T05:51:38.247Z,29.46
2023-04-28T05:52:38.260Z,29.50
2023-04-28T05:53:38.270Z,29.60
2023-04-28T05:54:38.309Z,29.58
2023-04-28T05:55:38.328Z,29.59
2023-04-28T05:56:38.333Z,29.57
2023-04-28T05:57:45.622Z,29.70
2023-04-28T05:58:39.332Z,29.71
2023-04-28T05:59:38.336Z,29.78
2023-04-28T06:00:38.307Z,29.64
2023-04-28T06:01:38.329Z,29.88
2023-04-28T06:02:38.477Z,29.71
2023-04-28T06:03:38.478Z,29.80
2023-04-28T06:04:38.583Z,29.81
2023-04-28T06:05:38.328Z,29.90
2023-04-28T06:06:38.785Z,29.91
2023-04-28T06:07:38.665Z,30.02
2023-04-28T06:08:38.298Z,30.04
2023-04-28T06:09:38.250Z,30.04
2023-04-28T06:10:38.238Z,30.02
2023-04-28T06:11:38.251Z,30.06
2023-04-28T06:12:38.261Z,30.12
2023-04-28T06:13:38.227Z,30.13
2023-04-28T06:14:38.219Z,30.15
2023-04-28T06:15:38.256Z,30.19
2023-04-28T06:16:38.239Z,30.48
2023-04-28T06:17:38.708Z,30.36
2023-04-28T06:18:38.224Z,30.47
2023-04-28T06:19:38.190Z,30.38
2023-04-28T06:20:38.208Z,30.28
2023-04-28T06:21:38.226Z,30.29
2023-04-28T06:22:38.220Z,30.29
2023-04-28T06:23:38.187Z,30.37
2023-04-28T06:24:38.144Z,30.35
2023-04-28T06:25:38.157Z,30.70
2023-04-28T06:26:38.234Z,30.57
2023-04-28T06:27:38.164Z,30.47
2023-04-28T06:28:38.156Z,30.67
2023-04-28T06:29:38.113Z,30.64
2023-04-28T06:30:38.138Z,30.65
2023-04-28T06:31:38.234Z,30.55
2023-04-28T06:32:38.128Z,29.80
2023-04-28T06:33:38.097Z,29.57
2023-04-28T06:34:38.100Z,29.58
2023-04-28T06:35:38.107Z,30.05
2023-04-28T06:36:38.200Z,29.96
2023-04-28T06:37:38.140Z,30.35
2023-04-28T06:38:38.046Z,30.11
2023-04-28T06:39:38.131Z,30.19
2023-04-28T06:40:38.094Z,30.57
2023-04-28T06:41:38.132Z,30.63
2023-04-28T06:42:38.217Z,30.69
2023-04-28T06:43:38.194Z,30.28
2023-04-28T06:44:38.212Z,29.91
2023-04-28T06:45:38.249Z,30.19
2023-04-28T06:46:38.347Z,30.09
2023-04-28T06:47:38.335Z,30.38
2023-04-28T06:48:38.366Z,30.45
2023-04-28T06:49:38.379Z,30.94
2023-04-28T06:50:38.399Z,30.83
2023-04-28T06:51:38.428Z,30.83
2023-04-28T06:52:39.696Z,30.93
2023-04-28T06:53:38.523Z,31.17
2023-04-28T06:54:38.464Z,31.17
2023-04-28T06:55:38.485Z,31.33
2023-04-28T06:56:38.732Z,31.33
2023-04-28T06:57:38.737Z,31.30
2023-04-28T06:58:38.535Z,31.52
2023-04-28T06:59:38.530Z,31.55
2023-04-28T07:00:38.528Z,31.55
2023-04-28T07:01:38.558Z,31.59
2023-04-28T07:02:38.648Z,31.67
2023-04-28T07:03:38.873Z,31.62
2023-04-28T07:04:38.581Z,31.63
2023-04-28T07:05:38.600Z,31.67
2023-04-28T07:06:38.660Z,31.73
2023-04-28T07:07:38.731Z,31.72
2023-04-28T07:08:38.706Z,31.66
2023-04-28T07:09:39.594Z,31.33
2023-04-28T07:10:38.824Z,31.40
2023-04-28T07:11:38.896Z,31.47
2023-04-28T07:12:38.945Z,31.53
2023-04-28T07:13:38.964Z,31.58
2023-04-28T07:14:39.055Z,31.69
2023-04-28T07:15:39.097Z,31.69
2023-04-28T07:16:39.183Z,31.74
2023-04-28T07:17:39.376Z,31.74
2023-04-28T07:18:39.246Z,31.78
2023-04-28T07:19:39.266Z,31.80
2023-04-28T07:20:39.311Z,31.79
2023-04-28T07:21:39.408Z,31.86
2023-04-28T07:22:39.453Z,31.83
2023-04-28T07:23:39.495Z,31.93
2023-04-28T07:24:39.563Z,31.89
2023-04-28T07:25:39.611Z,31.97
2023-04-28T07:26:39.721Z,31.80
2023-04-28T07:27:39.780Z,31.57
2023-04-28T07:28:39.767Z,31.49
2023-04-28T07:29:39.819Z,30.77
2023-04-28T07:30:40.105Z,30.99
2023-04-28T07:31:40.000Z,30.86
2023-04-28T07:32:40.027Z,30.72
2023-04-28T07:33:40.072Z,30.77
2023-04-28T07:34:40.053Z,30.65
2023-04-28T07:35:40.082Z,30.73
2023-04-28T07:36:40.111Z,30.66
2023-04-28T07:37:40.773Z,30.87
2023-04-28T07:38:40.151Z,31.01
2023-04-28T07:39:40.115Z,31.14
2023-04-28T07:40:40.147Z,31.17
2023-04-28T07:41:40.232Z,31.17
2023-04-28T07:42:40.230Z,31.16
2023-04-28T07:43:40.226Z,31.23
2023-04-28T07:44:40.288Z,31.27
2023-04-28T07:45:40.324Z,31.25
2023-04-28T07:46:40.308Z,31.26
2023-04-28T07:47:40.433Z,31.24
2023-04-28T07:48:40.722Z,31.33
2023-04-28T07:49:40.406Z,31.38
2023-04-28T07:50:40.387Z,31.32
2023-04-28T07:51:40.459Z,31.35
2023-04-28T07:52:40.718Z,31.34
2023-04-28T07:53:40.791Z,31.43
2023-04-28T07:54:40.561Z,31.49
2023-04-28T07:55:40.593Z,31.53
2023-04-28T07:56:40.658Z,31.51
2023-04-28T07:57:40.710Z,31.51
2023-04-28T07:58:41.726Z,31.57
2023-04-28T07:59:40.808Z,31.57
2023-04-28T08:00:41.297Z,31.58
2023-04-28T08:01:40.898Z,31.57
2023-04-28T08:02:41.184Z,31.62
2023-04-28T08:03:41.165Z,31.62
2023-04-28T08:04:41.121Z,31.66
2023-04-28T08:05:41.105Z,31.60
2023-04-28T08:06:41.143Z,31.62
2023-04-28T08:07:41.245Z,31.63
2023-04-28T08:08:41.277Z,31.64
2023-04-28T08:09:41.822Z,31.62
2023-04-28T08:10:41.334Z,31.67
2023-04-28T08:11:41.342Z,31.54
2023-04-28T08:12:41.402Z,31.67
2023-04-28T08:13:41.730Z,31.68
2023-04-28T08:14:41.461Z,31.67
2023-04-28T08:15:41.553Z,31.68
2023-04-28T08:16:41.598Z,31.73
2023-04-28T08:17:41.645Z,31.72
2023-04-28T08:18:41.858Z,31.76
2023-04-28T08:19:41.690Z,31.76
2023-04-28T08:20:41.742Z,31.75
2023-04-28T08:21:41.778Z,31.53
2023-04-28T08:22:41.790Z,31.73
2023-04-28T08:23:42.267Z,31.59
2023-04-28T08:24:41.798Z,31.81
2023-04-28T08:25:41.805Z,31.77
2023-04-28T08:26:41.845Z,31.65
2023-04-28T08:27:41.839Z,31.46
2023-04-28T08:28:41.854Z,31.41
2023-04-28T08:29:41.880Z,31.59
2023-04-28T08:30:41.933Z,31.65
2023-04-28T08:31:42.023Z,31.67
2023-04-28T08:32:42.069Z,31.73
2023-04-28T08:33:42.237Z,31.82
2023-04-28T08:34:42.169Z,31.79
2023-04-28T08:35:42.168Z,31.68
2023-04-28T08:36:42.230Z,31.83
2023-04-28T08:37:42.364Z,31.87
2023-04-28T08:38:42.339Z,32.05
2023-04-28T08:39:42.388Z,31.98
2023-04-28T08:40:42.416Z,31.89
2023-04-28T08:41:42.496Z,31.80
2023-04-28T08:42:42.591Z,32.04
2023-04-28T08:43:42.610Z,32.10
2023-04-28T08:44:42.679Z,32.10
2023-04-28T08:45:42.725Z,32.15
2023-04-28T08:46:42.831Z,32.22
2023-04-28T08:47:42.848Z,32.38
2023-04-28T08:48:42.882Z,32.36
2023-04-28T08:49:42.901Z,32.44
2023-04-28T08:50:42.962Z,32.66
2023-04-28T08:51:43.009Z,32.65
2023-04-28T08:52:43.052Z,32.79
2023-04-28T08:54:11.754Z,32.82
2023-04-28T08:54:44.087Z,32.77
2023-04-28T08:55:43.109Z,32.82
2023-04-28T08:56:43.074Z,32.86
2023-04-28T08:57:43.068Z,32.79
2023-04-28T08:58:43.057Z,31.38
2023-04-28T08:59:43.039Z,31.48
2023-04-28T09:00:43.030Z,31.41
2023-04-28T09:01:43.088Z,31.32
2023-04-28T09:02:43.245Z,31.25
2023-04-28T09:03:43.181Z,31.37
2023-04-28T09:04:43.214Z,31.34
2023-04-28T09:05:43.128Z,31.40
2023-04-28T09:06:43.041Z,31.43
2023-04-28T09:07:43.078Z,31.62
2023-04-28T09:08:43.156Z,31.61
2023-04-28T09:09:43.201Z,31.66
2023-04-28T09:10:43.268Z,31.93
2023-04-28T09:11:43.218Z,31.79
2023-04-28T09:12:43.747Z,31.88
2023-04-28T09:13:43.300Z,31.92
2023-04-28T09:14:43.304Z,32.23
2023-04-28T09:15:43.298Z,32.25
2023-04-28T09:16:43.369Z,32.22
2023-04-28T09:17:43.348Z,32.37
2023-04-28T09:18:43.316Z,32.41
2023-04-28T09:19:43.544Z,32.56
2023-04-28T09:20:43.389Z,32.63
2023-04-28T09:21:43.427Z,32.71
2023-04-28T09:22:43.466Z,32.77
2023-04-28T09:23:43.433Z,32.81
2023-04-28T09:24:43.478Z,32.85
2023-04-28T09:25:43.512Z,33.49
2023-04-28T09:26:43.529Z,33.94
2023-04-28T09:27:43.548Z,33.39
2023-04-28T09:28:43.791Z,34.14
2023-04-28T09:29:43.657Z,33.58
2023-04-28T09:30:43.637Z,33.39
2023-04-28T09:31:43.644Z,33.46
2023-04-28T09:32:43.764Z,33.28
2023-04-28T09:33:43.684Z,33.65
2023-04-28T09:34:43.747Z,33.39
2023-04-28T09:35:43.804Z,33.28
2023-04-28T09:36:43.810Z,33.23
2023-04-28T09:37:44.272Z,32.94
2023-04-28T09:38:44.287Z,33.08
2023-04-28T09:39:43.922Z,33.09
2023-04-28T09:40:43.957Z,33.05
2023-04-28T09:41:43.972Z,33.11
2023-04-28T09:42:44.012Z,33.11
2023-04-28T09:43:43.993Z,33.14
2023-04-28T09:44:43.982Z,33.11
2023-04-28T09:45:44.028Z,33.15
2023-04-28T09:46:44.057Z,33.12
2023-04-28T09:47:44.331Z,33.10
2023-04-28T09:48:44.020Z,33.13
2023-04-28T09:49:44.013Z,33.06
2023-04-28T09:50:44.003Z,33.06
2023-04-28T09:51:44.007Z,33.08
2023-04-28T09:52:43.993Z,33.05
2023-04-28T09:53:44.052Z,32.99
2023-04-28T09:54:44.032Z,32.98
2023-04-28T09:55:44.077Z,32.90
2023-04-28T09:56:44.130Z,32.95
2023-04-28T09:57:44.205Z,32.88
2023-04-28T09:58:44.279Z,32.87
2023-04-28T09:59:44.308Z,32.89
2023-04-28T10:00:44.319Z,32.84
2023-04-28T10:01:44.456Z,32.81
2023-04-28T10:02:44.423Z,32.86
2023-04-28T10:03:44.705Z,32.81
2023-04-28T10:04:44.651Z,32.82
2023-04-28T10:05:44.584Z,32.83
2023-04-28T10:06:44.616Z,32.81
2023-04-28T10:07:44.657Z,32.80
2023-04-28T10:08:44.742Z,32.76
2023-04-28T10:09:44.783Z,32.79
2023-04-28T10:10:44.818Z,32.80
2023-04-28T10:11:44.894Z,32.86
2023-04-28T10:12:44.975Z,32.83
2023-04-28T10:13:45.000Z,32.78
2023-04-28T10:14:45.257Z,32.77
2023-04-28T10:15:45.558Z,32.80
2023-04-28T10:16:45.191Z,32.79
2023-04-28T10:17:45.311Z,32.77
2023-04-28T10:18:45.260Z,32.75
2023-04-28T10:19:45.344Z,32.58
2023-04-28T10:20:45.393Z,32.69
2023-04-28T10:21:46.556Z,32.83
2023-04-28T10:22:45.519Z,33.05
2023-04-28T10:23:45.787Z,32.82
2023-04-28T10:24:45.650Z,32.63
2023-04-28T10:25:45.685Z,32.64
2023-04-28T10:26:45.748Z,32.48
2023-04-28T10:27:45.822Z,32.30
2023-04-28T10:28:45.911Z,32.11
2023-04-28T10:29:45.895Z,32.29
2023-04-28T10:30:45.971Z,32.06
2023-04-28T10:31:46.072Z,31.49
2023-04-28T10:32:46.056Z,31.73
2023-04-28T10:33:46.110Z,31.77
2023-04-28T10:34:46.143Z,31.22
2023-04-28T10:35:46.213Z,31.28
2023-04-28T10:36:46.211Z,31.26
2023-04-28T10:37:46.261Z,31.32
2023-04-28T10:38:46.301Z,31.18
2023-04-28T10:39:46.317Z,31.10
2023-04-28T10:40:46.341Z,31.18
2023-04-28T10:41:46.365Z,31.39
2023-04-28T10:42:46.377Z,31.34
2023-04-28T10:43:46.382Z,31.25
2023-04-28T10:44:46.421Z,31.30
2023-04-28T10:45:46.426Z,31.45
2023-04-28T10:46:46.470Z,31.54
2023-04-28T10:47:46.493Z,31.20
2023-04-28T10:48:46.450Z,31.24
2023-04-28T10:49:46.456Z,31.17
2023-04-28T10:50:46.464Z,31.14
2023-04-28T10:51:46.473Z,31.01
2023-04-28T10:52:46.491Z,31.18
2023-04-28T10:53:47.363Z,30.93
2023-04-28T10:54:46.528Z,31.11
2023-04-28T10:55:46.526Z,31.02
2023-04-28T10:56:46.533Z,31.10
2023-04-28T10:57:46.539Z,31.02
2023-04-28T10:58:46.590Z,31.12
2023-04-28T10:59:46.540Z,31.05
2023-04-28T11:00:46.607Z,31.00
2023-04-28T11:01:46.639Z,31.11
2023-04-28T11:02:46.659Z,31.23
2023-04-28T11:03:46.686Z,31.20
2023-04-28T11:04:46.670Z,31.19
2023-04-28T11:05:46.541Z,30.98
2023-04-28T11:06:46.554Z,31.10
2023-04-28T11:07:46.559Z,31.21
2023-04-28T11:08:46.827Z,31.29
2023-04-28T11:09:46.592Z,31.18
2023-04-28T11:10:46.603Z,31.22
2023-04-28T11:11:46.593Z,31.26
2023-04-28T11:12:47.350Z,31.14
2023-04-28T11:13:46.824Z,31.16
2023-04-28T11:14:46.568Z,31.24
2023-04-28T11:15:46.579Z,31.31
2023-04-28T11:16:46.603Z,31.40
2023-04-28T11:17:46.614Z,31.41
2023-04-28T11:18:46.843Z,31.41
2023-04-28T11:19:46.563Z,31.51
2023-04-28T11:20:46.548Z,31.42
2023-04-28T11:21:46.581Z,31.54
2023-04-28T11:22:46.575Z,31.37
2023-04-28T11:23:46.831Z,31.35
2023-04-28T11:24:46.598Z,31.41
2023-04-28T11:25:46.566Z,31.63
2023-04-28T11:26:46.576Z,31.63
2023-04-28T11:27:46.583Z,31.88
2023-04-28T11:28:46.600Z,31.91
2023-04-28T11:29:46.580Z,31.96
2023-04-28T11:30:46.590Z,31.93
2023-04-28T11:31:46.674Z,32.01
2023-04-28T11:32:46.625Z,32.03
2023-04-28T11:33:46.572Z,32.07
2023-04-28T11:34:46.568Z,31.91
2023-04-28T11:35:46.577Z,31.76
2023-04-28T11:36:46.596Z,32.20
2023-04-28T11:37:46.606Z,32.35
2023-04-28T11:38:46.588Z,32.31
2023-04-28T11:39:46.607Z,32.45
2023-04-28T11:40:46.627Z,32.30
2023-04-28T11:41:46.610Z,32.38
2023-04-28T11:42:46.618Z,32.25
2023-04-28T11:43:47.577Z,31.89
2023-04-28T11:44:46.643Z,32.38
2023-04-28T11:45:46.679Z,32.73
2023-04-28T11:46:46.638Z,33.69
2023-04-28T11:47:46.695Z,33.22
2023-04-28T11:48:46.627Z,32.75
2023-04-28T11:49:46.663Z,32.86
2023-04-28T11:50:46.660Z,32.95
2023-04-28T11:51:46.665Z,32.63
2023-04-28T11:52:46.699Z,32.72
2023-04-28T11:53:46.681Z,32.59
2023-04-28T11:54:46.673Z,32.70
2023-04-28T11:55:46.653Z,32.66
2023-04-28T11:56:46.665Z,32.60
2023-04-28T11:57:46.681Z,32.73
2023-04-28T11:58:46.672Z,32.55
2023-04-28T11:59:46.917Z,33.01
2023-04-28T12:00:46.679Z,32.84
2023-04-28T12:01:46.677Z,32.75
2023-04-28T12:02:46.783Z,33.04
2023-04-28T12:03:46.803Z,32.81
2023-04-28T12:04:46.678Z,32.93
2023-04-28T12:05:46.714Z,32.73
2023-04-28T12:06:46.691Z,32.87
2023-04-28T12:07:46.791Z,32.95
2023-04-28T12:08:46.692Z,32.80
2023-04-28T12:09:46.691Z,32.65
2023-04-28T12:10:46.668Z,32.52
2023-04-28T12:11:46.694Z,32.99
2023-04-28T12:13:46.738Z,32.78
2023-04-28T12:14:46.672Z,32.76
2023-04-28T12:15:46.671Z,32.96
2023-04-28T12:16:46.656Z,32.84
2023-04-28T12:17:46.703Z,33.00
2023-04-28T12:18:46.662Z,32.81
2023-04-28T12:19:46.664Z,32.79
2023-04-28T12:20:46.646Z,32.86
2023-04-28T12:21:46.669Z,32.95
2023-04-28T12:22:46.648Z,32.66
2023-04-28T12:23:46.599Z,32.57
2023-04-28T12:24:46.615Z,32.60
2023-04-28T12:25:46.616Z,32.57
2023-04-28T12:26:46.611Z,32.62
2023-04-28T12:27:46.566Z,32.58
2023-04-28T12:28:46.583Z,32.58
2023-04-28T12:29:46.951Z,32.49
2023-04-28T12:30:46.585Z,32.65
2023-04-28T12:31:46.661Z,32.38
2023-04-28T12:32:46.629Z,32.49
2023-04-28T12:33:46.570Z,32.45
2023-04-28T12:34:46.554Z,32.26
2023-04-28T12:35:46.520Z,32.42
2023-04-28T12:36:46.525Z,32.38
2023-04-28T12:37:46.524Z,32.44
2023-04-28T12:38:46.521Z,32.36
2023-04-28T12:39:46.726Z,32.43
2023-04-28T12:40:46.507Z,32.29
2023-04-28T12:41:46.473Z,32.47
2023-04-28T12:42:46.485Z,32.27
2023-04-28T12:43:46.498Z,32.39
2023-04-28T12:44:46.504Z,32.29
2023-04-28T12:45:46.477Z,32.41
2023-04-28T12:46:46.477Z,32.53
2023-04-28T12:47:46.512Z,32.32
2023-04-28T12:48:46.428Z,32.45
2023-04-28T12:49:46.571Z,32.45
2023-04-28T12:50:46.445Z,32.19
2023-04-28T12:51:46.411Z,32.36
2023-04-28T12:52:46.413Z,32.33
2023-04-28T12:53:46.407Z,32.11